Time;durP1;ratioP1;P1;durP2;ratioP2;P2;SDS_P1;SDS_P2;PMS_P1;PMS_P2;Temp;Humidity;BMP_temperature;BMP_pressure;BME280_temperature;BME280_humidity;BME280_pressure;Samples;Min_cycle;Max_cycle;Signal;HPM_P1;HPM_P2
2023/01/23 00:01:08;;;;;;;4.50;1.80;;;3.30;99.90;;;;;;5041099;28;20297;-46
2023/01/23 00:03:35;;;;;;;4.93;1.73;;;3.30;99.90;;;;;;5030103;28;21789;-52
2023/01/23 00:06:04;;;;;;;4.23;2.00;;;3.30;99.90;;;;;;5040811;28;20250;-53
2023/01/23 00:08:31;;;;;;;4.17;2.00;;;3.30;99.90;;;;;;5021627;28;20941;-52
2023/01/23 00:11:00;;;;;;;2.50;1.60;;;3.20;99.90;;;;;;5040927;28;20309;-49
2023/01/23 00:13:27;;;;;;;3.43;2.00;;;3.20;99.90;;;;;;5027358;28;20194;-55
2023/01/23 00:15:54;;;;;;;6.40;1.93;;;3.20;99.90;;;;;;5042545;28;20278;-52
2023/01/23 00:18:21;;;;;;;2.57;1.50;;;3.10;99.90;;;;;;5034386;28;20203;-48
2023/01/23 00:20:48;;;;;;;3.63;1.70;;;3.10;99.90;;;;;;5043583;28;20238;-50
2023/01/23 00:23:14;;;;;;;2.33;1.33;;;3.10;99.90;;;;;;5043031;28;20226;-46
2023/01/23 00:25:41;;;;;;;2.60;1.50;;;3.10;99.90;;;;;;5028302;28;20214;-52
2023/01/23 00:28:10;;;;;;;3.20;1.60;;;3.10;99.90;;;;;;5043957;28;20270;-45
2023/01/23 00:30:36;;;;;;;3.80;1.50;;;3.10;99.90;;;;;;5032115;28;20963;-54
2023/01/23 00:33:04;;;;;;;3.57;1.53;;;3.10;99.90;;;;;;5042718;28;20195;-53
2023/01/23 00:35:30;;;;;;;3.20;1.40;;;3.10;99.90;;;;;;5030918;28;20274;-49
2023/01/23 00:37:57;;;;;;;2.10;1.60;;;3.00;99.90;;;;;;5044431;28;20196;-51
2023/01/23 00:40:24;;;;;;;2.13;1.03;;;3.00;99.90;;;;;;5024771;28;20224;-49
2023/01/23 00:42:53;;;;;;;3.00;1.30;;;3.00;99.90;;;;;;5044720;28;20231;-48
2023/01/23 00:45:21;;;;;;;1.67;1.47;;;3.00;99.90;;;;;;5031368;28;20572;-47
2023/01/23 00:47:47;;;;;;;2.20;1.47;;;3.00;99.90;;;;;;5044925;28;20207;-54
2023/01/23 00:50:14;;;;;;;1.33;1.20;;;2.90;99.90;;;;;;5029541;28;20243;-48
2023/01/23 00:52:41;;;;;;;2.43;1.33;;;2.90;99.90;;;;;;5039531;28;20216;-47
2023/01/23 00:55:10;;;;;;;2.10;1.27;;;2.90;99.90;;;;;;5021988;28;20199;-46
2023/01/23 00:57:37;;;;;;;1.63;1.00;;;2.90;99.90;;;;;;5041590;28;20343;-48
2023/01/23 01:00:04;;;;;;;1.70;1.07;;;2.90;99.90;;;;;;5035690;28;20757;-51
2023/01/23 01:02:33;;;;;;;2.57;1.10;;;2.90;99.90;;;;;;5040058;28;20421;-54
2023/01/23 01:04:59;;;;;;;1.37;0.87;;;2.90;99.90;;;;;;5033437;28;20196;-52
2023/01/23 01:07:26;;;;;;;1.17;0.97;;;2.90;99.90;;;;;;5052406;28;20704;-54
2023/01/23 01:09:53;;;;;;;1.00;0.90;;;2.90;99.90;;;;;;5042272;28;20246;-50
2023/01/23 01:12:20;;;;;;;2.87;1.00;;;2.80;99.90;;;;;;5025340;28;20256;-47
2023/01/23 01:14:47;;;;;;;1.10;0.73;;;2.90;99.90;;;;;;5032409;28;20566;-51
2023/01/23 01:17:15;;;;;;;2.67;0.90;;;2.90;99.90;;;;;;5054065;28;20214;-45
2023/01/23 01:19:43;;;;;;;1.03;1.00;;;2.90;99.90;;;;;;5040331;28;20226;-48
2023/01/23 01:22:09;;;;;;;2.07;1.40;;;2.80;99.90;;;;;;5034547;28;20277;-46
2023/01/23 01:24:36;;;;;;;1.30;1.20;;;2.90;99.90;;;;;;5034675;28;20203;-48
2023/01/23 01:27:03;;;;;;;5.13;1.40;;;2.80;99.90;;;;;;5026334;28;20208;-51
2023/01/23 01:29:30;;;;;;;2.73;1.60;;;2.80;99.90;;;;;;5040877;28;20709;-50
2023/01/23 01:31:57;;;;;;;3.13;2.03;;;2.80;99.90;;;;;;5036431;28;20739;-48
2023/01/23 01:34:24;;;;;;;4.03;1.73;;;2.80;99.90;;;;;;5040784;28;20238;-45
2023/01/23 01:36:52;;;;;;;4.30;1.70;;;2.80;99.90;;;;;;5034317;28;20196;-50
2023/01/23 01:39:19;;;;;;;2.83;1.80;;;2.80;99.90;;;;;;5039785;28;20217;-48
2023/01/23 01:41:46;;;;;;;3.40;2.07;;;2.80;99.90;;;;;;5025836;28;20211;-48
2023/01/23 01:44:17;;;;;;;4.07;2.23;;;2.80;99.90;;;;;;5042394;28;20273;-45
2023/01/23 01:46:45;;;;;;;3.27;1.83;;;2.80;99.90;;;;;;5034373;28;20203;-49
2023/01/23 01:49:17;;;;;;;4.50;2.30;;;2.80;99.90;;;;;;5042110;28;20214;-44
2023/01/23 01:51:46;;;;;;;3.20;1.97;;;2.80;99.90;;;;;;5043034;28;20939;-51
2023/01/23 01:54:23;;;;;;;2.37;2.17;;;2.80;99.90;;;;;;5033501;28;20625;-45
2023/01/23 01:56:56;;;;;;;3.00;2.70;;;2.80;99.90;;;;;;5040458;28;20231;-48
2023/01/23 01:59:26;;;;;;;2.87;2.40;;;2.80;99.90;;;;;;5023277;28;20208;-44
2023/01/23 02:01:57;;;;;;;5.23;2.60;;;2.80;99.90;;;;;;5033427;28;20282;-51
2023/01/23 02:04:25;;;;;;;3.67;2.80;;;2.80;99.90;;;;;;5038289;28;20266;-44
2023/01/23 02:06:53;;;;;;;3.30;3.00;;;2.80;99.90;;;;;;5044581;28;20203;-49
2023/01/23 02:09:25;;;;;;;3.77;2.83;;;2.80;99.90;;;;;;5041261;28;20204;-46
2023/01/23 02:11:53;;;;;;;3.57;3.27;;;2.80;99.90;;;;;;5042991;28;20211;-49
2023/01/23 02:14:23;;;;;;;4.60;2.77;;;2.80;99.90;;;;;;5024137;28;20200;-46
2023/01/23 02:16:51;;;;;;;3.93;3.00;;;2.80;99.90;;;;;;5040090;28;20199;-53
2023/01/23 02:19:30;;;;;;;3.57;3.23;;;2.80;99.90;;;;;;5028542;28;20211;-48
2023/01/23 02:22:06;;;;;;;4.20;3.27;;;2.70;99.90;;;;;;5044200;28;20231;-50
2023/01/23 02:24:39;;;;;;;4.07;3.67;;;2.80;99.90;;;;;;5041141;28;20526;-49
2023/01/23 02:27:08;;;;;;;3.40;3.10;;;2.80;99.90;;;;;;5036496;28;20290;-48
2023/01/23 02:29:43;;;;;;;4.40;3.80;;;2.80;99.90;;;;;;5023352;28;20199;-47
2023/01/23 02:32:10;;;;;;;3.63;3.33;;;2.80;99.90;;;;;;5038068;28;20203;-48
2023/01/23 02:34:37;;;;;;;4.00;3.20;;;2.80;99.90;;;;;;5025541;28;20191;-49
2023/01/23 02:37:06;;;;;;;4.90;3.67;;;2.80;99.90;;;;;;5042245;28;20906;-49
2023/01/23 02:39:33;;;;;;;6.60;3.53;;;2.80;99.90;;;;;;5039495;28;20936;-48
2023/01/23 02:42:03;;;;;;;4.10;3.70;;;2.80;99.90;;;;;;5042028;28;20217;-51
2023/01/23 02:44:52;;;;;;;3.17;2.90;;;2.70;99.90;;;;;;5022630;28;20222;-49
2023/01/23 02:47:19;;;;;;;5.03;2.83;;;2.70;99.90;;;;;;5039081;28;20200;-48
2023/01/23 02:49:47;;;;;;;6.97;3.20;;;2.70;99.90;;;;;;5028212;28;20721;-50
2023/01/23 02:52:14;;;;;;;3.40;3.10;;;2.70;99.90;;;;;;5040731;28;20203;-49
2023/01/23 02:54:41;;;;;;;3.17;2.83;;;2.70;99.90;;;;;;5042097;28;20187;-51
2023/01/23 02:57:08;;;;;;;3.97;3.60;;;2.70;99.90;;;;;;5041214;28;20752;-45
2023/01/23 03:02:22;;;;;;;3.70;3.33;;;2.70;99.90;;;;;;5038623;28;20279;-47
2023/01/23 03:04:49;;;;;;;3.60;3.30;;;2.70;99.90;;;;;;5024479;28;20303;-55
2023/01/23 03:07:15;;;;;;;4.17;3.07;;;2.70;99.90;;;;;;5041758;28;20210;-50
2023/01/23 03:09:45;;;;;;;4.87;3.63;;;2.70;99.90;;;;;;5034642;28;20211;-53
2023/01/23 03:12:11;;;;;;;4.07;3.10;;;2.70;99.90;;;;;;5032291;28;20220;-45
2023/01/23 03:14:39;;;;;;;5.30;3.40;;;2.60;99.90;;;;;;5023105;28;20717;-53
2023/01/23 03:17:05;;;;;;;5.20;3.40;;;2.70;99.90;;;;;;5041745;28;20199;-46
2023/01/23 03:19:37;;;;;;;3.80;3.50;;;2.60;99.90;;;;;;5022608;28;20567;-50
2023/01/23 03:22:04;;;;;;;4.50;3.93;;;2.60;99.90;;;;;;5041647;28;20269;-50
2023/01/23 03:24:34;;;;;;;5.20;3.70;;;2.60;99.90;;;;;;5038521;28;20865;-49
2023/01/23 03:27:01;;;;;;;3.37;3.07;;;2.60;99.90;;;;;;5042269;28;20634;-50
2023/01/23 03:32:19;;;;;;;4.40;2.97;;;2.60;99.90;;;;;;5038447;28;20920;-47
2023/01/23 03:34:48;;;;;;;3.50;3.10;;;2.60;99.90;;;;;;5033757;28;20218;-52
2023/01/23 03:37:16;;;;;;;3.33;3.03;;;2.60;99.90;;;;;;5039212;28;20203;-45
2023/01/23 03:42:34;;;;;;;3.83;3.47;;;2.60;99.90;;;;;;5037364;28;20187;-50
2023/01/23 03:45:03;;;;;;;3.73;3.10;;;2.60;99.90;;;;;;5024075;28;20216;-51
2023/01/23 03:47:32;;;;;;;5.13;3.03;;;2.60;99.90;;;;;;5032934;28;20187;-51
2023/01/23 03:50:01;;;;;;;3.70;2.87;;;2.60;99.90;;;;;;5030759;28;20274;-51
2023/01/23 03:52:33;;;;;;;2.67;2.47;;;2.60;99.90;;;;;;5036027;28;20211;-51
2023/01/23 03:55:00;;;;;;;4.57;2.73;;;2.60;99.90;;;;;;5044997;28;20206;-49
2023/01/23 03:57:27;;;;;;;3.23;2.77;;;2.60;99.90;;;;;;5043226;28;20286;-55
2023/01/23 04:00:23;;;;;;;4.20;2.50;;;2.50;99.90;;;;;;5026915;28;20227;-44
2023/01/23 04:02:58;;;;;;;3.37;2.70;;;2.50;99.90;;;;;;5042297;28;20198;-50
2023/01/23 04:05:26;;;;;;;3.40;2.87;;;2.60;99.90;;;;;;5032963;28;20671;-48
2023/01/23 04:07:53;;;;;;;2.40;2.20;;;2.60;99.90;;;;;;5045741;28;20206;-51
2023/01/23 04:10:20;;;;;;;2.57;2.37;;;2.50;99.90;;;;;;5043816;28;20273;-46
2023/01/23 04:12:52;;;;;;;2.60;2.40;;;2.50;99.90;;;;;;5045086;28;20205;-52
2023/01/23 04:15:20;;;;;;;2.70;2.50;;;2.50;99.90;;;;;;5023298;28;20200;-47
2023/01/23 04:17:47;;;;;;;2.30;2.10;;;2.60;99.90;;;;;;5044801;28;20688;-50
2023/01/23 04:20:14;;;;;;;3.10;2.77;;;2.60;99.90;;;;;;5041374;28;20227;-41
2023/01/23 04:23:05;;;;;;;4.77;3.60;;;2.60;99.90;;;;;;5040873;28;20215;-48
2023/01/23 04:25:32;;;;;;;3.60;2.73;;;2.60;99.90;;;;;;5040183;28;20207;-51
2023/01/23 04:27:59;;;;;;;3.63;2.97;;;2.60;99.90;;;;;;5044467;28;20599;-50
2023/01/23 04:30:26;;;;;;;4.03;3.03;;;2.60;99.90;;;;;;5024121;28;20391;-50
2023/01/23 04:32:54;;;;;;;3.70;3.37;;;2.50;99.90;;;;;;5044511;28;20207;-49
2023/01/23 04:35:21;;;;;;;3.37;3.07;;;2.60;99.90;;;;;;5033973;28;20631;-43
2023/01/23 04:37:48;;;;;;;4.70;3.70;;;2.60;99.90;;;;;;5039312;28;20209;-51
2023/01/23 04:40:17;;;;;;;4.30;3.20;;;2.60;99.90;;;;;;5042276;28;20248;-47
2023/01/23 04:42:52;;;;;;;4.37;3.50;;;2.60;99.90;;;;;;5044649;28;20217;-55
2023/01/23 04:45:32;;;;;;;4.03;3.40;;;2.60;99.90;;;;;;5020738;28;20310;-55
2023/01/23 04:48:18;;;;;;;4.33;3.90;;;2.60;99.90;;;;;;5015235;28;21453;-48
2023/01/23 04:50:45;;;;;;;3.90;3.60;;;2.60;99.90;;;;;;5044762;28;20216;-51
2023/01/23 04:53:13;;;;;;;4.87;3.57;;;2.50;99.90;;;;;;5026866;28;20203;-46
2023/01/23 04:55:42;;;;;;;6.63;4.20;;;2.60;99.90;;;;;;5038139;28;20222;-52
2023/01/23 04:58:14;;;;;;;4.43;4.03;;;2.60;99.90;;;;;;5041582;28;20203;-48
2023/01/23 05:00:41;;;;;;;4.73;3.73;;;2.60;99.90;;;;;;5030126;28;20231;-52
2023/01/23 05:03:08;;;;;;;5.43;4.30;;;2.60;99.90;;;;;;5015994;28;20214;-46
2023/01/23 05:05:35;;;;;;;4.40;4.00;;;2.50;99.90;;;;;;5029643;28;20239;-55
2023/01/23 05:08:02;;;;;;;5.70;4.47;;;2.60;99.90;;;;;;5029215;28;20203;-44
2023/01/23 05:10:29;;;;;;;4.70;4.20;;;2.50;99.90;;;;;;5019712;28;20228;-52
2023/01/23 05:13:04;;;;;;;5.13;4.47;;;2.50;99.90;;;;;;5053226;28;20200;-50
2023/01/23 05:15:31;;;;;;;8.23;4.40;;;2.50;99.90;;;;;;5041338;28;20190;-53
2023/01/23 05:17:58;;;;;;;4.70;4.20;;;2.50;99.90;;;;;;5042129;28;20199;-44
2023/01/23 05:20:25;;;;;;;6.00;4.57;;;2.50;99.90;;;;;;5017468;28;22960;-49
2023/01/23 05:23:13;;;;;;;5.87;4.50;;;2.60;99.90;;;;;;5028027;28;20716;-45
2023/01/23 05:26:01;;;;;;;6.37;4.40;;;2.50;99.90;;;;;;5031813;28;20848;-47
2023/01/23 05:28:32;;;;;;;5.47;4.23;;;2.60;99.90;;;;;;5055170;28;20188;-52
2023/01/23 05:30:59;;;;;;;5.33;4.33;;;2.60;99.90;;;;;;5038873;28;20273;-50
2023/01/23 05:33:39;;;;;;;5.30;4.80;;;2.60;99.90;;;;;;5020405;28;20222;-51
2023/01/23 05:36:07;;;;;;;7.93;4.47;;;2.60;99.90;;;;;;5039321;28;20195;-43
2023/01/23 05:38:34;;;;;;;5.73;4.50;;;2.60;99.90;;;;;;5016287;28;20215;-56
2023/01/23 05:41:00;;;;;;;5.87;4.70;;;2.60;99.90;;;;;;5039559;28;20230;-46
2023/01/23 05:43:49;;;;;;;6.17;4.60;;;2.60;99.90;;;;;;5036715;28;20203;-56
2023/01/23 05:46:28;;;;;;;9.10;4.90;;;2.60;99.90;;;;;;5035527;28;20203;-54
2023/01/23 05:48:56;;;;;;;5.73;4.77;;;2.60;99.90;;;;;;5022996;28;20219;-54
2023/01/23 05:51:30;;;;;;;7.57;4.87;;;2.60;99.90;;;;;;5036363;28;20207;-52
2023/01/23 05:53:58;;;;;;;5.90;4.67;;;2.60;99.90;;;;;;5034172;28;20231;-48
2023/01/23 05:56:25;;;;;;;6.63;5.33;;;2.60;99.90;;;;;;5032054;28;20207;-53
2023/01/23 05:59:12;;;;;;;6.90;5.90;;;2.60;99.90;;;;;;5033291;28;20293;-45
2023/01/23 06:01:45;;;;;;;5.67;5.07;;;2.60;99.90;;;;;;5041411;28;20223;-52
2023/01/23 06:04:31;;;;;;;6.87;5.20;;;2.60;99.90;;;;;;5024924;28;20293;-57
2023/01/23 06:07:21;;;;;;;6.03;5.13;;;2.60;99.90;;;;;;5032791;28;20291;-55
2023/01/23 06:09:52;;;;;;;8.80;5.87;;;2.60;99.90;;;;;;5050794;28;20227;-54
2023/01/23 06:12:19;;;;;;;10.10;5.53;;;2.60;99.90;;;;;;5038665;28;20918;-52
2023/01/23 06:14:48;;;;;;;8.37;5.27;;;2.60;99.90;;;;;;5024374;28;20231;-57
2023/01/23 06:17:15;;;;;;;6.13;5.53;;;2.60;99.90;;;;;;5040035;28;20207;-49
2023/01/23 06:19:42;;;;;;;6.70;5.20;;;2.60;99.90;;;;;;5015598;28;20230;-56
2023/01/23 06:22:10;;;;;;;6.00;5.40;;;2.60;99.90;;;;;;5036779;28;20203;-46
2023/01/23 06:24:55;;;;;;;6.90;5.13;;;2.70;99.90;;;;;;5042228;28;20226;-52
2023/01/23 06:27:22;;;;;;;7.27;5.47;;;2.60;99.90;;;;;;5029462;28;20755;-46
2023/01/23 06:29:51;;;;;;;13.23;5.67;;;2.60;99.90;;;;;;5034242;28;20252;-57
2023/01/23 06:32:18;;;;;;;5.80;4.93;;;2.70;99.90;;;;;;5037740;28;20203;-51
2023/01/23 06:34:45;;;;;;;6.20;5.50;;;2.60;99.90;;;;;;5026654;28;20207;-57
2023/01/23 06:37:12;;;;;;;7.37;5.57;;;2.70;99.90;;;;;;5021264;28;20253;-47
2023/01/23 06:39:40;;;;;;;5.77;5.17;;;2.70;99.90;;;;;;5034232;28;20227;-54
2023/01/23 06:42:08;;;;;;;8.90;6.13;;;2.60;99.90;;;;;;5030261;28;20211;-46
2023/01/23 06:44:37;;;;;;;7.80;5.57;;;2.60;99.90;;;;;;5046467;28;20299;-54
2023/01/23 06:47:06;;;;;;;5.90;5.07;;;2.60;99.90;;;;;;5037626;28;20203;-52
2023/01/23 06:49:34;;;;;;;7.57;5.77;;;2.60;99.90;;;;;;5037221;28;20202;-54
2023/01/23 06:52:01;;;;;;;8.80;5.87;;;2.70;99.90;;;;;;5026421;28;20227;-51
2023/01/23 06:54:31;;;;;;;8.97;6.70;;;2.70;99.90;;;;;;5020368;28;20207;-51
2023/01/23 06:57:01;;;;;;;9.60;6.13;;;2.70;99.90;;;;;;5028479;28;20226;-48
2023/01/23 06:59:28;;;;;;;9.67;6.03;;;2.70;99.90;;;;;;5030861;28;20204;-51
2023/01/23 07:01:57;;;;;;;8.90;6.30;;;2.60;99.90;;;;;;5032294;28;20283;-53
2023/01/23 07:04:34;;;;;;;6.13;5.47;;;2.60;99.90;;;;;;5021563;28;20945;-51
2023/01/23 07:07:01;;;;;;;6.70;5.80;;;2.70;99.90;;;;;;5020348;28;20211;-48
2023/01/23 07:09:29;;;;;;;8.00;5.83;;;2.60;99.90;;;;;;5024554;28;20231;-54
2023/01/23 07:12:05;;;;;;;9.93;5.77;;;2.60;99.90;;;;;;5046652;28;20253;-48
2023/01/23 07:14:33;;;;;;;8.40;5.63;;;2.60;99.90;;;;;;5022116;28;20194;-52
2023/01/23 07:17:00;;;;;;;6.40;5.13;;;2.60;99.90;;;;;;5028334;28;20203;-50
2023/01/23 07:19:27;;;;;;;8.63;6.43;;;2.60;99.90;;;;;;5021673;28;21016;-52
2023/01/23 07:21:56;;;;;;;8.57;5.70;;;2.70;99.90;;;;;;5015279;28;20207;-56
2023/01/23 07:24:23;;;;;;;7.87;6.20;;;2.70;99.90;;;;;;5032214;28;20188;-55
2023/01/23 07:26:50;;;;;;;9.67;6.80;;;2.70;99.90;;;;;;5028091;28;20222;-56
2023/01/23 07:29:17;;;;;;;10.13;6.50;;;2.70;99.90;;;;;;5020222;28;20210;-47
2023/01/23 07:31:44;;;;;;;7.00;5.47;;;2.70;99.90;;;;;;5012959;28;20215;-45
2023/01/23 07:34:11;;;;;;;8.77;6.13;;;2.70;99.90;;;;;;5029755;28;20223;-51
2023/01/23 07:36:38;;;;;;;9.50;6.87;;;2.70;99.90;;;;;;5019858;28;20230;-45
2023/01/23 07:39:06;;;;;;;8.43;6.43;;;2.70;99.90;;;;;;5037538;28;20258;-55
2023/01/23 07:41:33;;;;;;;11.07;6.43;;;2.70;99.90;;;;;;5029562;28;20223;-47
2023/01/23 07:44:02;;;;;;;8.37;5.77;;;2.70;99.90;;;;;;5033406;28;20238;-55
2023/01/23 07:46:30;;;;;;;8.83;5.93;;;2.70;99.90;;;;;;5040429;28;20211;-50
2023/01/23 07:48:57;;;;;;;6.67;5.90;;;2.70;99.90;;;;;;5040570;28;20188;-56
2023/01/23 07:51:23;;;;;;;6.67;5.87;;;2.70;99.90;;;;;;5032447;28;20223;-43
2023/01/23 07:53:50;;;;;;;9.33;6.50;;;2.70;99.90;;;;;;5024034;28;20195;-54
2023/01/23 07:56:18;;;;;;;7.50;5.77;;;2.70;99.90;;;;;;5042659;28;20203;-53
2023/01/23 07:58:49;;;;;;;9.30;6.43;;;2.70;99.90;;;;;;5022993;28;21890;-49
2023/01/23 08:01:17;;;;;;;6.17;5.33;;;2.70;99.90;;;;;;5041008;28;20226;-55
2023/01/23 08:03:45;;;;;;;9.20;6.30;;;2.70;99.90;;;;;;5037204;28;20902;-50
2023/01/23 08:06:11;;;;;;;8.67;6.60;;;2.70;99.90;;;;;;5031514;28;20623;-54
2023/01/23 08:08:38;;;;;;;8.13;6.00;;;2.70;99.90;;;;;;5003987;28;20200;-54
2023/01/23 08:11:06;;;;;;;10.23;6.20;;;2.70;99.90;;;;;;5038646;28;20226;-49
2023/01/23 08:13:34;;;;;;;9.13;6.30;;;2.70;99.90;;;;;;5015626;28;20585;-49
2023/01/23 08:16:01;;;;;;;8.83;6.87;;;2.70;99.90;;;;;;5030622;28;20200;-47
2023/01/23 08:18:30;;;;;;;10.67;7.30;;;2.70;99.90;;;;;;5028553;28;20386;-53
2023/01/23 08:20:58;;;;;;;8.13;6.77;;;2.70;99.90;;;;;;5037212;28;20215;-48
2023/01/23 08:23:25;;;;;;;8.80;7.07;;;2.70;99.90;;;;;;5011951;28;20674;-50
2023/01/23 08:25:53;;;;;;;9.70;7.30;;;2.70;99.90;;;;;;5037479;28;20235;-51
2023/01/23 08:28:20;;;;;;;9.00;6.70;;;2.70;99.90;;;;;;5028600;28;20314;-47
2023/01/23 08:30:48;;;;;;;9.60;6.57;;;2.70;99.90;;;;;;5025279;28;20234;-52
2023/01/23 08:33:14;;;;;;;12.47;6.87;;;2.80;99.90;;;;;;5029038;28;20210;-46
2023/01/23 08:35:48;;;;;;;12.50;7.17;;;2.80;99.90;;;;;;5031794;28;20283;-53
2023/01/23 08:38:16;;;;;;;8.00;6.20;;;2.80;99.90;;;;;;5014186;28;20207;-50
2023/01/23 08:40:43;;;;;;;8.00;6.90;;;2.80;99.90;;;;;;5041206;28;20213;-52
2023/01/23 08:43:12;;;;;;;7.07;6.27;;;2.80;99.90;;;;;;5036165;28;20199;-47
2023/01/23 08:45:39;;;;;;;11.03;6.83;;;2.80;99.90;;;;;;5028744;28;20348;-52
2023/01/23 08:48:08;;;;;;;9.00;6.00;;;2.80;99.90;;;;;;5045179;28;20210;-45
2023/01/23 08:50:34;;;;;;;9.53;6.80;;;2.80;99.90;;;;;;5037121;28;20926;-47
2023/01/23 08:53:02;;;;;;;9.37;7.00;;;2.90;99.90;;;;;;5026836;28;20278;-47
2023/01/23 08:55:31;;;;;;;9.73;5.80;;;2.80;99.90;;;;;;5006364;28;20254;-46
2023/01/23 08:57:58;;;;;;;10.23;6.43;;;2.90;99.90;;;;;;5040341;28;20264;-49
2023/01/23 09:00:25;;;;;;;12.23;7.17;;;2.90;99.90;;;;;;5026914;28;20236;-54
2023/01/23 09:02:52;;;;;;;9.13;6.93;;;2.90;99.90;;;;;;5027417;28;20220;-51
2023/01/23 09:05:21;;;;;;;10.17;7.13;;;2.90;99.90;;;;;;5035061;28;20184;-50
2023/01/23 09:07:48;;;;;;;7.50;6.37;;;2.90;99.90;;;;;;5027877;28;20834;-48
2023/01/23 09:10:16;;;;;;;9.13;6.53;;;2.90;99.90;;;;;;5022478;28;20705;-50
2023/01/23 09:12:42;;;;;;;9.03;7.07;;;2.90;99.90;;;;;;5032597;28;20199;-48
2023/01/23 09:15:10;;;;;;;9.27;7.00;;;2.90;99.90;;;;;;5030829;28;20199;-51
2023/01/23 09:17:37;;;;;;;8.97;6.23;;;2.90;99.90;;;;;;5035764;28;20198;-44
2023/01/23 09:20:05;;;;;;;8.20;6.33;;;3.00;99.90;;;;;;5042827;28;20287;-51
2023/01/23 09:22:34;;;;;;;9.63;5.80;;;3.00;99.90;;;;;;5036070;28;20200;-45
2023/01/23 09:25:01;;;;;;;8.00;6.67;;;3.00;99.90;;;;;;5015129;28;20235;-43
2023/01/23 09:27:28;;;;;;;10.13;6.37;;;3.00;99.90;;;;;;5042317;28;20306;-47
2023/01/23 09:29:54;;;;;;;9.77;5.93;;;3.00;99.90;;;;;;5031179;28;20215;-48
2023/01/23 09:32:22;;;;;;;11.13;7.10;;;3.10;99.90;;;;;;5031946;28;20199;-52
2023/01/23 09:34:48;;;;;;;10.67;6.90;;;3.10;99.90;;;;;;5034472;28;20192;-49
2023/01/23 09:37:15;;;;;;;9.67;7.07;;;3.00;99.90;;;;;;5039541;28;20213;-51
2023/01/23 09:39:44;;;;;;;9.73;6.60;;;3.10;99.90;;;;;;5021972;28;20200;-48
2023/01/23 09:42:17;;;;;;;10.53;6.87;;;3.10;99.90;;;;;;5035364;28;20200;-49
2023/01/23 09:44:48;;;;;;;8.67;6.63;;;3.20;99.90;;;;;;5019007;28;20204;-51
2023/01/23 09:47:20;;;;;;;12.53;7.13;;;3.20;99.90;;;;;;5019835;28;20216;-48
2023/01/23 09:49:54;;;;;;;10.00;6.70;;;3.20;99.90;;;;;;5029168;28;20224;-51
2023/01/23 09:52:24;;;;;;;10.77;5.93;;;3.20;99.90;;;;;;5037805;28;20717;-49
2023/01/23 09:54:57;;;;;;;9.73;7.03;;;3.20;99.90;;;;;;5023983;28;20601;-58
2023/01/23 09:57:30;;;;;;;8.03;6.43;;;3.30;99.90;;;;;;5026350;28;20193;-51
2023/01/23 10:00:05;;;;;;;9.90;6.20;;;3.30;99.90;;;;;;5043932;28;20235;-52
2023/01/23 10:02:34;;;;;;;9.23;7.03;;;3.30;99.90;;;;;;5020965;28;20604;-49
2023/01/23 10:05:01;;;;;;;9.80;7.03;;;3.30;99.90;;;;;;5020230;28;20196;-55
2023/01/23 10:07:44;;;;;;;9.63;6.60;;;3.30;99.90;;;;;;5033071;28;20376;-50
2023/01/23 10:10:36;;;;;;;9.33;6.33;;;3.40;99.90;;;;;;5022317;28;20983;-47
2023/01/23 10:13:10;;;;;;;12.03;6.50;;;3.40;99.90;;;;;;5034237;28;20670;-43
2023/01/23 10:16:00;;;;;;;11.03;6.27;;;3.40;99.90;;;;;;5031224;28;20931;-53
2023/01/23 10:18:58;;;;;;;8.10;6.13;;;3.50;99.90;;;;;;5033768;28;20227;-51
2023/01/23 10:21:31;;;;;;;7.93;6.00;;;3.50;99.90;;;;;;5030697;28;20917;-51
2023/01/23 10:24:31;;;;;;;8.63;5.77;;;3.50;99.90;;;;;;5022407;28;20218;-43
2023/01/23 10:27:11;;;;;;;9.97;5.97;;;3.60;99.90;;;;;;5029815;28;20220;-52
2023/01/23 10:29:42;;;;;;;10.57;6.27;;;3.60;99.90;;;;;;5035654;28;20913;-52
2023/01/23 10:32:23;;;;;;;8.93;6.70;;;3.60;99.90;;;;;;5030765;28;20203;-46
2023/01/23 10:34:55;;;;;;;8.23;6.60;;;3.60;99.90;;;;;;5036009;28;20746;-54
2023/01/23 10:37:37;;;;;;;9.67;6.80;;;3.60;99.90;;;;;;5029726;28;20194;-57
2023/01/23 10:40:10;;;;;;;9.93;6.37;;;3.70;99.90;;;;;;5020225;28;20231;-47
2023/01/23 10:42:39;;;;;;;9.70;6.93;;;3.70;99.90;;;;;;5035055;28;20207;-53
2023/01/23 10:45:10;;;;;;;12.40;7.63;;;3.70;99.90;;;;;;5035033;28;20196;-49
2023/01/23 10:47:44;;;;;;;10.10;6.13;;;3.80;99.90;;;;;;5024845;28;20222;-51
2023/01/23 10:50:12;;;;;;;11.43;7.53;;;3.80;99.90;;;;;;5039871;28;20230;-47
2023/01/23 10:52:42;;;;;;;9.33;7.40;;;3.80;99.90;;;;;;5033616;28;20191;-45
2023/01/23 10:55:28;;;;;;;12.77;7.80;;;3.90;99.90;;;;;;5030347;28;20199;-44
2023/01/23 10:58:01;;;;;;;9.73;6.93;;;3.90;99.90;;;;;;5040513;28;20597;-56
2023/01/23 11:00:35;;;;;;;9.13;6.20;;;3.90;99.90;;;;;;5033575;28;20288;-51
2023/01/23 11:03:31;;;;;;;10.17;6.73;;;4.00;99.90;;;;;;5027058;28;20203;-47
2023/01/23 11:06:03;;;;;;;13.30;7.30;;;4.00;99.90;;;;;;5030371;28;20278;-52
2023/01/23 11:08:32;;;;;;;10.97;7.30;;;3.90;99.90;;;;;;5026849;28;20194;-50
2023/01/23 11:11:21;;;;;;;12.00;7.10;;;4.00;99.90;;;;;;5038360;28;20230;-52
2023/01/23 11:13:51;;;;;;;10.10;7.63;;;4.00;99.90;;;;;;5040697;28;20205;-57
2023/01/23 11:16:21;;;;;;;12.10;6.90;;;4.00;99.90;;;;;;5022251;28;20196;-49
2023/01/23 11:18:53;;;;;;;13.17;7.60;;;4.00;99.90;;;;;;5028813;28;20206;-45
2023/01/23 11:21:21;;;;;;;12.57;6.70;;;4.00;99.90;;;;;;5027771;28;20806;-55
2023/01/23 11:23:48;;;;;;;11.10;7.27;;;4.00;99.90;;;;;;5026446;28;20286;-49
2023/01/23 11:26:31;;;;;;;8.33;6.77;;;4.10;99.90;;;;;;5034169;28;20218;-52
2023/01/23 11:29:01;;;;;;;8.90;7.00;;;4.10;99.90;;;;;;5023426;28;20195;-53
2023/01/23 11:31:29;;;;;;;11.70;7.20;;;4.10;99.90;;;;;;5033287;28;20230;-55
2023/01/23 11:33:59;;;;;;;13.33;7.10;;;4.20;99.90;;;;;;5024257;28;20210;-50
2023/01/23 11:36:53;;;;;;;11.17;6.90;;;4.20;99.90;;;;;;5023198;28;20256;-47
2023/01/23 11:39:36;;;;;;;11.53;7.13;;;4.20;99.90;;;;;;5031949;28;20207;-50
2023/01/23 11:42:03;;;;;;;10.73;6.93;;;4.20;99.90;;;;;;5019136;28;20866;-51
2023/01/23 11:44:33;;;;;;;11.77;7.30;;;4.20;99.90;;;;;;5041921;28;20199;-55
2023/01/23 11:47:21;;;;;;;8.60;6.37;;;4.20;99.90;;;;;;5031018;28;20223;-51
2023/01/23 11:50:11;;;;;;;10.23;7.23;;;4.20;99.90;;;;;;5021981;28;20228;-47
2023/01/23 11:52:55;;;;;;;10.43;6.90;;;4.20;99.90;;;;;;5034057;28;20189;-50
2023/01/23 11:55:57;;;;;;;14.03;7.83;;;4.20;99.90;;;;;;5040472;28;20199;-54
2023/01/23 11:58:40;;;;;;;11.43;7.43;;;4.20;99.90;;;;;;4987169;28;20248;-53
2023/01/23 12:01:14;;;;;;;8.87;6.83;;;4.20;99.90;;;;;;5039400;28;20211;-49
2023/01/23 12:04:32;;;;;;;8.00;6.30;;;4.20;99.90;;;;;;5034475;28;20210;-55
2023/01/23 12:07:16;;;;;;;11.70;6.47;;;4.20;99.90;;;;;;5030777;28;20963;-56
2023/01/23 12:09:51;;;;;;;9.37;6.10;;;4.20;99.90;;;;;;5036112;28;20286;-47
2023/01/23 12:12:27;;;;;;;13.23;7.77;;;4.10;99.90;;;;;;5037364;28;20200;-56
2023/01/23 12:15:02;;;;;;;13.67;7.43;;;4.10;99.90;;;;;;5019587;28;20195;-53
2023/01/23 12:17:40;;;;;;;10.30;6.73;;;4.10;99.90;;;;;;5023728;28;20207;-53
2023/01/23 12:20:25;;;;;;;10.97;7.20;;;4.20;99.90;;;;;;5025401;28;20289;-49
2023/01/23 12:23:07;;;;;;;10.20;6.83;;;4.20;99.90;;;;;;5030579;28;20210;-50
2023/01/23 12:25:35;;;;;;;9.00;7.20;;;4.20;99.90;;;;;;5037277;28;20736;-53
2023/01/23 12:28:16;;;;;;;11.07;7.37;;;4.20;99.90;;;;;;5018872;28;22718;-52
2023/01/23 12:31:03;;;;;;;14.40;8.13;;;4.20;99.90;;;;;;5040816;28;20222;-52
2023/01/23 12:33:56;;;;;;;13.20;7.63;;;4.20;99.90;;;;;;5033593;28;20236;-53
2023/01/23 12:36:36;;;;;;;12.23;7.07;;;4.20;99.90;;;;;;5032612;28;20210;-55
2023/01/23 12:39:14;;;;;;;11.40;7.40;;;4.20;99.90;;;;;;5022854;28;20195;-54
2023/01/23 12:41:45;;;;;;;12.77;7.70;;;4.20;99.90;;;;;;5040631;28;20233;-50
2023/01/23 12:44:15;;;;;;;11.20;7.43;;;4.10;99.90;;;;;;5021767;28;24498;-55
2023/01/23 12:46:50;;;;;;;10.90;6.93;;;4.20;99.90;;;;;;5039437;28;20309;-52
2023/01/23 12:49:25;;;;;;;9.10;7.03;;;4.20;99.90;;;;;;5032536;28;20244;-50
2023/01/23 12:51:56;;;;;;;11.20;7.53;;;4.30;99.90;;;;;;5031987;28;20541;-49
2023/01/23 12:54:33;;;;;;;11.93;7.33;;;4.30;99.90;;;;;;5029696;28;20298;-49
2023/01/23 12:57:01;;;;;;;10.87;7.83;;;4.30;99.90;;;;;;5030718;28;20192;-57
2023/01/23 12:59:43;;;;;;;9.87;6.63;;;4.30;99.90;;;;;;5040930;28;20211;-51
2023/01/23 13:02:18;;;;;;;9.53;7.00;;;4.30;99.90;;;;;;5041757;28;20204;-56
2023/01/23 13:04:59;;;;;;;12.30;7.57;;;4.30;99.90;;;;;;5029637;28;20913;-55
2023/01/23 13:07:41;;;;;;;10.43;6.77;;;4.30;99.90;;;;;;5039245;28;20221;-49
2023/01/23 13:10:23;;;;;;;8.93;6.80;;;4.30;99.90;;;;;;5032729;28;20711;-53
2023/01/23 13:12:54;;;;;;;13.67;8.00;;;4.30;99.90;;;;;;5039554;28;20191;-54
2023/01/23 13:15:31;;;;;;;12.20;7.70;;;4.30;99.90;;;;;;5026240;28;20210;-55
2023/01/23 13:17:59;;;;;;;11.63;6.83;;;4.30;99.90;;;;;;5037519;28;20205;-51
2023/01/23 13:23:41;;;;;;;11.27;7.00;;;4.30;99.90;;;;;;5036294;28;20282;-49
2023/01/23 13:26:34;;;;;;;7.50;6.53;;;4.30;99.90;;;;;;5032464;28;20207;-52
2023/01/23 13:29:03;;;;;;;8.80;6.93;;;4.30;99.90;;;;;;5034965;28;20191;-56